Time;durP1;ratioP1;P1;durP2;ratioP2;P2;SDS_P1;SDS_P2;PMS_P1;PMS_P2;Temp;Humidity;BMP_temperature;BMP_pressure;BME280_temperature;BME280_humidity;BME280_pressure;Samples;Min_cycle;Max_cycle;Signal;HPM_P1;HPM_P2
2024/01/14 00:00:06;;;;;;;106.28;43.05;;;;;;;0.57;100.00;101627.31;5045652;28;20065;-83
2024/01/14 00:02:34;;;;;;;129.10;51.95;;;;;;;0.55;100.00;101641.16;5070019;28;20463;-84
2024/01/14 00:04:59;;;;;;;123.18;50.10;;;;;;;0.54;100.00;101639.34;5088383;28;20032;-85
2024/01/14 00:07:25;;;;;;;120.53;51.47;;;;;;;0.55;100.00;101636.81;5048843;28;20065;-85
2024/01/14 00:09:51;;;;;;;124.32;49.15;;;;;;;0.58;100.00;101636.03;5055085;28;20526;-84
2024/01/14 00:12:16;;;;;;;102.93;43.00;;;;;;;0.59;100.00;101633.47;5059483;28;20191;-84
2024/01/14 00:14:42;;;;;;;108.63;45.55;;;;;;;0.56;100.00;101629.88;5051367;28;20051;-84
2024/01/14 00:17:08;;;;;;;123.22;49.42;;;;;;;0.57;100.00;101629.94;5040998;28;20085;-84
2024/01/14 00:19:33;;;;;;;112.82;46.67;;;;;;;0.57;100.00;101623.81;5060515;28;20044;-83
2024/01/14 00:21:59;;;;;;;103.05;43.42;;;;;;;0.57;100.00;101624.72;5036623;28;20059;-83
2024/01/14 00:24:24;;;;;;;118.40;48.53;;;;;;;0.56;100.00;101615.09;5047217;28;20044;-84
2024/01/14 00:26:50;;;;;;;121.88;50.10;;;;;;;0.56;100.00;101614.22;5037794;28;20040;-83
2024/01/14 00:29:15;;;;;;;119.50;50.85;;;;;;;0.54;100.00;101613.28;5044720;28;20091;-82
2024/01/14 00:31:41;;;;;;;113.35;42.78;;;;;;;0.54;100.00;101608.06;5047636;28;20098;-83
2024/01/14 00:34:06;;;;;;;120.57;50.40;;;;;;;0.48;100.00;101589.66;5055973;28;20079;-84
2024/01/14 00:36:40;;;;;;;93.53;39.67;;;;;;;0.53;100.00;101593.28;5060563;28;20044;-86
2024/01/14 00:39:06;;;;;;;101.53;41.40;;;;;;;0.51;100.00;101597.56;5064988;28;20112;-83
2024/01/14 00:41:33;;;;;;;107.82;47.17;;;;;;;0.52;100.00;101600.22;5020994;28;20025;-85
2024/01/14 00:43:58;;;;;;;118.88;49.25;;;;;;;0.51;100.00;101600.16;5051969;28;20120;-83
2024/01/14 00:46:24;;;;;;;117.65;44.03;;;;;;;0.49;100.00;101594.03;5051492;28;20466;-83
2024/01/14 00:48:49;;;;;;;118.75;49.35;;;;;;;0.51;100.00;101602.78;5037855;28;20084;-83
2024/01/14 00:51:15;;;;;;;128.25;52.70;;;;;;;0.46;100.00;101599.16;5055309;28;20044;-84
2024/01/14 00:53:41;;;;;;;120.45;48.80;;;;;;;0.51;100.00;101588.03;5063786;28;20036;-83
2024/01/14 00:56:06;;;;;;;124.70;53.55;;;;;;;0.46;100.00;101594.81;5026224;28;20040;-83
2024/01/14 00:58:32;;;;;;;105.38;42.53;;;;;;;0.46;100.00;101589.59;5057030;28;20134;-83
2024/01/14 01:00:57;;;;;;;118.38;47.58;;;;;;;0.45;100.00;101577.41;5050506;28;20063;-83
2024/01/14 01:03:23;;;;;;;136.38;53.50;;;;;;;0.50;100.00;101585.38;5047246;28;20128;-86
2024/01/14 01:05:48;;;;;;;115.65;44.88;;;;;;;0.50;100.00;101585.38;5060070;28;20419;-83
2024/01/14 01:08:15;;;;;;;117.88;43.40;;;;;;;0.53;100.00;101577.66;5066257;28;20110;-84
2024/01/14 01:10:41;;;;;;;108.28;44.30;;;;;;;0.58;100.00;101587.38;5051679;28;20098;-84
2024/01/14 01:13:06;;;;;;;129.23;53.83;;;;;;;0.53;100.00;101578.53;5063598;28;20080;-83
2024/01/14 01:15:32;;;;;;;115.65;47.92;;;;;;;0.56;100.00;101582.94;5062338;28;20450;-84
2024/01/14 01:18:02;;;;;;;128.60;48.75;;;;;;;0.53;100.00;101578.53;5049382;28;20037;-84
2024/01/14 01:20:27;;;;;;;121.88;45.40;;;;;;;0.59;100.00;101588.25;5035526;28;20484;-82
2024/01/14 01:22:53;;;;;;;119.82;45.65;;;;;;;0.57;100.00;101580.41;5052651;28;20040;-80
2024/01/14 01:25:19;;;;;;;110.45;45.42;;;;;;;0.54;100.00;101571.59;5058974;28;20036;-81
2024/01/14 01:27:44;;;;;;;115.85;45.45;;;;;;;0.51;100.00;101558.47;5057606;28;20130;-82
2024/01/14 01:30:10;;;;;;;127.55;49.13;;;;;;;0.57;100.00;101569.06;5052679;28;20032;-82
2024/01/14 01:32:35;;;;;;;93.25;39.70;;;;;;;0.58;100.00;101566.53;5062777;28;20475;-82
2024/01/14 01:35:01;;;;;;;120.85;46.55;;;;;;;0.54;100.00;101542.94;5040939;28;20141;-81
2024/01/14 01:37:26;;;;;;;82.72;36.90;;;;;;;0.58;100.00;101547.41;5060771;28;20483;-80
2024/01/14 01:39:52;;;;;;;103.15;44.75;;;;;;;0.61;100.00;101556.19;5046224;28;20082;-82
2024/01/14 01:42:17;;;;;;;110.57;46.78;;;;;;;0.60;100.00;101543.13;5037252;28;20404;-81
2024/01/14 01:44:43;;;;;;;89.78;38.80;;;;;;;0.61;100.00;101537.06;5061113;28;20422;-81
2024/01/14 01:47:09;;;;;;;94.30;42.70;;;;;;;0.56;100.00;101529.09;5052010;28;20041;-79
2024/01/14 01:49:35;;;;;;;96.60;40.33;;;;;;;0.55;100.00;101532.56;5069999;28;20128;-82
2024/01/14 01:52:04;;;;;;;107.65;43.72;;;;;;;0.55;100.00;101542.97;5068601;28;20124;-82
2024/01/14 01:54:31;;;;;;;84.65;37.42;;;;;;;0.58;100.00;101540.47;5024162;28;20037;-82
2024/01/14 01:56:57;;;;;;;97.65;38.60;;;;;;;0.55;100.00;101548.19;5070375;28;20386;-81
2024/01/14 01:59:23;;;;;;;100.53;43.50;;;;;;;0.54;100.00;101533.38;5059480;28;20036;-82
2024/01/14 02:01:54;;;;;;;83.55;37.03;;;;;;;0.55;100.00;101526.47;5007742;28;20033;-82
2024/01/14 02:04:20;;;;;;;100.53;39.88;;;;;;;0.59;100.00;101524.00;5061682;28;20136;-81
2024/01/14 02:06:46;;;;;;;99.13;42.58;;;;;;;0.59;100.00;101530.91;5061939;28;20086;-81
2024/01/14 02:09:12;;;;;;;94.43;39.85;;;;;;;0.56;100.00;101523.00;5045746;28;20063;-82
2024/01/14 02:11:37;;;;;;;96.85;41.72;;;;;;;0.61;100.00;101527.50;5061092;28;20055;-82
2024/01/14 02:14:04;;;;;;;91.57;42.80;;;;;;;0.58;100.00;101531.75;5066236;28;20131;-84
2024/01/14 02:16:30;;;;;;;97.97;40.92;;;;;;;0.59;100.00;101530.91;5055440;28;20060;-82
2024/01/14 02:18:55;;;;;;;85.20;38.90;;;;;;;0.60;100.00;101528.38;5050606;28;20488;-81
2024/01/14 02:21:23;;;;;;;99.72;43.45;;;;;;;0.60;100.00;101530.97;5053018;28;20037;-81
2024/01/14 02:23:55;;;;;;;94.28;35.78;;;;;;;0.63;100.00;101528.44;5054613;28;20029;-80
2024/01/14 02:26:21;;;;;;;85.15;37.53;;;;;;;0.69;100.00;101524.25;5058615;28;20102;-80
2024/01/14 02:28:48;;;;;;;99.20;42.05;;;;;;;0.67;100.00;101524.22;5052216;28;20410;-80
2024/01/14 02:31:14;;;;;;;95.95;40.95;;;;;;;0.66;100.00;101517.22;5069740;28;20048;-80
2024/01/14 02:33:40;;;;;;;91.35;41.63;;;;;;;0.62;100.00;101512.78;5064286;28;20064;-80
2024/01/14 02:36:05;;;;;;;101.15;45.97;;;;;;;0.60;100.00;101512.72;5064050;28;20028;-81
2024/01/14 02:38:31;;;;;;;104.05;44.67;;;;;;;0.63;100.00;101504.13;5085999;28;20390;-80
2024/01/14 02:40:56;;;;;;;111.13;44.88;;;;;;;0.62;100.00;101510.19;5074114;28;20048;-80
2024/01/14 02:43:22;;;;;;;90.97;41.65;;;;;;;0.60;100.00;101496.22;5065513;28;20423;-80
2024/01/14 02:45:47;;;;;;;95.75;39.90;;;;;;;0.60;100.00;101494.47;5023155;28;20036;-80
2024/01/14 02:48:13;;;;;;;100.28;45.20;;;;;;;0.60;100.00;101491.00;5065759;28;20043;-81
2024/01/14 02:50:39;;;;;;;118.82;48.00;;;;;;;0.55;100.00;101484.78;5062390;28;20379;-81
2024/01/14 02:53:04;;;;;;;115.05;46.03;;;;;;;0.60;100.00;101491.00;5058865;28;20096;-81
2024/01/14 02:55:30;;;;;;;116.78;49.75;;;;;;;0.57;100.00;101494.41;5080729;28;20080;-81
2024/01/14 02:57:57;;;;;;;117.82;46.17;;;;;;;0.56;100.00;101479.59;5062556;28;20079;-80
2024/01/14 03:00:26;;;;;;;112.63;49.33;;;;;;;0.59;100.00;101477.09;5048864;28;20036;-81
2024/01/14 03:02:51;;;;;;;113.43;44.92;;;;;;;0.54;100.00;101478.66;5065650;28;20055;-81
2024/01/14 03:05:17;;;;;;;117.07;49.05;;;;;;;0.55;100.00;101476.94;5068410;28;20044;-81
2024/01/14 03:07:42;;;;;;;106.53;48.20;;;;;;;0.60;100.00;101470.16;5070056;28;20042;-81
2024/01/14 03:10:08;;;;;;;114.68;47.67;;;;;;;0.56;100.00;101469.16;5056391;28;20462;-81
2024/01/14 03:12:34;;;;;;;89.55;36.92;;;;;;;0.56;100.00;101463.06;5091525;28;20065;-81
2024/01/14 03:14:59;;;;;;;98.50;40.70;;;;;;;0.58;100.00;101464.88;5056812;28;20024;-81
2024/01/14 03:17:24;;;;;;;97.22;43.15;;;;;;;0.54;100.00;101465.63;5049138;28;20040;-81
2024/01/14 03:19:50;;;;;;;90.30;38.90;;;;;;;0.53;100.00;101460.38;5074720;28;20044;-83
2024/01/14 03:22:15;;;;;;;92.90;40.85;;;;;;;0.54;100.00;101459.53;5073958;28;20040;-82
2024/01/14 03:24:41;;;;;;;90.63;38.20;;;;;;;0.49;100.00;101459.38;5054007;28;20043;-82
2024/01/14 03:27:06;;;;;;;96.70;40.47;;;;;;;0.51;100.00;101460.31;5054861;28;20541;-81
2024/01/14 03:29:32;;;;;;;84.50;35.33;;;;;;;0.53;100.00;101461.25;5065242;28;20360;-82
2024/01/14 03:31:57;;;;;;;106.95;48.17;;;;;;;0.43;100.00;101456.63;5059789;28;20087;-84
2024/01/14 03:34:23;;;;;;;98.80;40.25;;;;;;;0.47;100.00;101455.88;5057950;28;20139;-82
2024/01/14 03:36:48;;;;;;;82.00;36.78;;;;;;;0.47;100.00;101453.28;5084314;28;20066;-82
2024/01/14 03:39:14;;;;;;;107.35;46.10;;;;;;;0.43;100.00;101446.19;5053792;28;20028;-83
2024/01/14 03:41:40;;;;;;;88.53;39.05;;;;;;;0.41;100.00;101448.75;5054757;28;20033;-82
2024/01/14 03:44:05;;;;;;;91.95;41.85;;;;;;;0.43;100.00;101444.47;5063036;28;20505;-83
2024/01/14 03:46:31;;;;;;;109.35;48.53;;;;;;;0.43;100.00;101446.19;5068669;28;20056;-82
2024/01/14 03:48:56;;;;;;;101.10;45.63;;;;;;;0.41;100.00;101438.31;5076652;28;20059;-83
2024/01/14 03:51:22;;;;;;;83.50;37.75;;;;;;;0.43;100.00;101426.22;5086057;28;20111;-83
2024/01/14 03:53:47;;;;;;;90.53;38.25;;;;;;;0.42;100.00;101426.16;5045039;28;20060;-83
2024/01/14 03:56:13;;;;;;;84.43;37.42;;;;;;;0.39;100.00;101426.97;5073711;28;20115;-83
2024/01/14 03:58:39;;;;;;;92.70;38.92;;;;;;;0.39;100.00;101429.56;5047164;28;20032;-82
2024/01/14 04:01:04;;;;;;;81.82;38.00;;;;;;;0.37;100.00;101415.66;5062220;28;20092;-84
2024/01/14 04:03:30;;;;;;;94.22;43.53;;;;;;;0.38;100.00;101421.72;5043304;28;20029;-84
2024/01/14 04:05:55;;;;;;;82.75;38.70;;;;;;;0.35;100.00;101421.66;5053587;28;20043;-83
2024/01/14 04:08:21;;;;;;;79.65;37.53;;;;;;;0.37;100.00;101426.06;5060272;28;20093;-83
2024/01/14 04:10:46;;;;;;;81.13;37.95;;;;;;;0.33;100.00;101413.78;5037087;28;20112;-82
2024/01/14 04:13:13;;;;;;;81.95;39.72;;;;;;;0.35;100.00;101413.84;5045381;28;20032;-83
2024/01/14 04:15:38;;;;;;;83.30;39.72;;;;;;;0.30;100.00;101405.88;5056984;28;20051;-82
2024/01/14 04:18:04;;;;;;;89.10;40.45;;;;;;;0.37;100.00;101406.91;5066973;28;20036;-83
2024/01/14 04:20:29;;;;;;;79.57;38.67;;;;;;;0.33;100.00;101405.97;5083680;28;20048;-83
2024/01/14 04:22:55;;;;;;;76.57;35.33;;;;;;;0.37;100.00;101401.72;5050838;28;20424;-82
2024/01/14 04:25:20;;;;;;;79.50;36.33;;;;;;;0.33;100.00;101399.88;5053301;28;20464;-83
2024/01/14 04:27:46;;;;;;;78.55;36.97;;;;;;;0.31;100.00;101409.38;5062392;28;20039;-82
2024/01/14 04:30:11;;;;;;;68.18;33.17;;;;;;;0.34;100.00;101404.25;5040139;28;20456;-83
2024/01/14 04:32:37;;;;;;;84.60;40.72;;;;;;;0.33;100.00;101399.88;5053600;28;20021;-82
2024/01/14 04:35:02;;;;;;;72.50;30.73;;;;;;;0.33;100.00;101400.75;5086297;28;20056;-82
2024/01/14 04:37:28;;;;;;;73.57;35.85;;;;;;;0.27;100.00;101405.78;5050490;28;20116;-82
2024/01/14 04:39:55;;;;;;;78.30;36.85;;;;;;;0.29;100.00;101404.09;5049448;28;20459;-82
2024/01/14 04:42:21;;;;;;;51.15;27.45;;;;;;;0.30;100.00;101386.78;5054106;28;20170;-82
2024/01/14 04:44:47;;;;;;;84.68;37.03;;;;;;;0.30;100.00;101394.59;5053122;28;20575;-82
2024/01/14 04:47:12;;;;;;;75.25;36.10;;;;;;;0.27;100.00;101390.13;5050082;28;20127;-82
2024/01/14 04:49:38;;;;;;;78.80;35.97;;;;;;;0.26;100.00;101391.00;5052942;28;20340;-82
2024/01/14 04:52:04;;;;;;;73.80;33.25;;;;;;;0.24;100.00;101381.38;5066650;28;20023;-82
2024/01/14 04:54:29;;;;;;;76.38;34.97;;;;;;;0.22;100.00;101378.72;5042867;28;20427;-82
2024/01/14 04:56:55;;;;;;;64.05;31.10;;;;;;;0.24;100.00;101382.25;5059961;28;20036;-82
2024/01/14 04:59:20;;;;;;;66.72;33.17;;;;;;;0.25;100.00;101388.31;5051417;28;20132;-82
2024/01/14 05:01:45;;;;;;;60.03;31.42;;;;;;;0.28;100.00;101385.84;5052690;28;20040;-82
2024/01/14 05:04:12;;;;;;;48.13;24.73;;;;;;;0.29;100.00;101377.16;5055901;28;20044;-82
2024/01/14 05:06:37;;;;;;;54.40;28.83;;;;;;;0.28;100.00;101372.81;5036307;28;20452;-83
2024/01/14 05:09:03;;;;;;;50.97;26.17;;;;;;;0.24;100.00;101374.44;5052815;28;20028;-83
2024/01/14 05:11:29;;;;;;;50.00;25.38;;;;;;;0.25;100.00;101363.19;5052833;28;20071;-82
2024/01/14 05:13:54;;;;;;;52.97;26.95;;;;;;;0.18;100.00;101367.34;5065466;28;20047;-81
2024/01/14 05:16:19;;;;;;;44.88;23.20;;;;;;;0.16;100.00;101365.53;5084584;28;20072;-81
2024/01/14 05:18:46;;;;;;;49.45;29.25;;;;;;;0.15;100.00;101367.25;5052640;28;20048;-82
2024/01/14 05:21:16;;;;;;;44.00;24.83;;;;;;;0.13;100.00;101362.84;5052540;28;20078;-81
2024/01/14 05:23:42;;;;;;;46.78;23.27;;;;;;;0.08;100.00;101360.09;5052765;28;20048;-81
2024/01/14 05:26:07;;;;;;;48.83;23.98;;;;;;;0.09;100.00;101366.19;5043624;28;20040;-81
2024/01/14 05:28:33;;;;;;;45.10;23.33;;;;;;;0.04;100.00;101341.72;5054956;28;20337;-81
2024/01/14 05:30:58;;;;;;;44.70;23.13;;;;;;;-0.02;100.00;101334.63;5080391;28;20431;-83
2024/01/14 05:33:24;;;;;;;51.33;26.95;;;;;;;0.04;100.00;101347.81;5041710;28;20996;-82
2024/01/14 05:35:49;;;;;;;37.78;19.95;;;;;;;0.12;100.00;101354.13;5090858;28;20048;-83
2024/01/14 05:38:15;;;;;;;43.40;22.77;;;;;;;0.08;100.00;101347.06;5071804;28;20459;-83
2024/01/14 05:40:40;;;;;;;55.20;27.55;;;;;;;0.03;100.00;101329.56;5071763;28;20064;-82
2024/01/14 05:43:06;;;;;;;40.17;22.02;;;;;;;0.05;100.00;101343.47;5058211;28;20506;-82
2024/01/14 05:45:35;;;;;;;56.75;28.33;;;;;;;0.02;100.00;101341.66;5047750;28;20034;-81
2024/01/14 05:48:01;;;;;;;50.40;24.30;;;;;;;0.07;100.00;101341.81;5073196;28;20036;-82
2024/01/14 05:50:26;;;;;;;54.00;25.00;;;;;;;0.02;100.00;101332.97;5054248;28;20036;-82
2024/01/14 05:52:51;;;;;;;50.85;26.65;;;;;;;0.06;100.00;101340.94;5079933;28;20514;-82
2024/01/14 05:55:17;;;;;;;55.40;25.35;;;;;;;0.01;100.00;101333.84;5080595;28;20105;-81
2024/01/14 05:57:43;;;;;;;48.58;23.55;;;;;;;-0.03;100.00;101323.31;5069683;28;20503;-81
2024/01/14 06:00:08;;;;;;;52.70;25.90;;;;;;;-0.02;100.00;101317.28;5055415;28;20518;-82
2024/01/14 06:02:34;;;;;;;50.40;24.70;;;;;;;-0.04;100.00;101311.13;5054466;28;20048;-82
2024/01/14 06:04:59;;;;;;;57.35;27.42;;;;;;;-0.01;100.00;101323.38;5004664;28;20127;-82
2024/01/14 06:07:25;;;;;;;59.65;30.20;;;;;;;-0.01;100.00;101324.25;5029493;28;20177;-82
2024/01/14 06:09:50;;;;;;;56.65;26.50;;;;;;;-0.05;100.00;101313.69;5056549;28;20120;-82
2024/01/14 06:12:16;;;;;;;64.80;29.85;;;;;;;0.00;100.00;101312.13;5057542;28;20410;-82
2024/01/14 06:14:42;;;;;;;43.72;21.17;;;;;;;-0.04;100.00;101299.84;5068257;28;20051;-82
2024/01/14 06:17:09;;;;;;;52.08;24.50;;;;;;;-0.02;100.00;101306.00;5055175;28;20025;-82
2024/01/14 06:19:35;;;;;;;59.40;29.23;;;;;;;0.00;100.00;101301.72;5056069;28;20517;-82
2024/01/14 06:22:00;;;;;;;58.92;28.67;;;;;;;-0.04;100.00;101298.13;5055862;28;20040;-82
2024/01/14 06:24:26;;;;;;;61.50;30.38;;;;;;;-0.04;100.00;101295.53;5066995;28;20104;-82
2024/01/14 06:26:52;;;;;;;53.75;26.02;;;;;;;-0.01;100.00;101290.38;5038754;28;20033;-83
2024/01/14 06:29:18;;;;;;;47.55;23.80;;;;;;;0.00;100.00;101291.31;5041223;28;20040;-82
2024/01/14 06:31:45;;;;;;;56.13;26.58;;;;;;;-0.04;100.00;101292.03;5061806;28;20111;-82
2024/01/14 06:34:11;;;;;;;54.35;27.23;;;;;;;-0.04;100.00;101295.53;5043261;28;20056;-83
2024/01/14 06:36:37;;;;;;;55.15;27.05;;;;;;;-0.02;100.00;101293.84;5065334;28;20071;-82
2024/01/14 06:39:02;;;;;;;60.08;31.00;;;;;;;-0.03;100.00;101293.78;5053289;28;20056;-83
2024/01/14 06:41:28;;;;;;;61.38;28.08;;;;;;;0.01;100.00;101286.97;5068417;28;20042;-83
2024/01/14 06:43:54;;;;;;;35.25;17.35;;;;;;;-0.04;100.00;101279.91;5066820;28;20491;-84
2024/01/14 06:46:19;;;;;;;53.67;26.02;;;;;;;0.01;100.00;101281.75;5065912;28;20125;-83
2024/01/14 06:48:45;;;;;;;52.03;27.25;;;;;;;-0.04;100.00;101272.09;5092336;28;20059;-83
2024/01/14 06:51:11;;;;;;;55.92;26.13;;;;;;;-0.04;100.00;101266.88;5055827;28;20093;-83
2024/01/14 06:53:36;;;;;;;53.42;26.10;;;;;;;-0.10;100.00;101252.78;5072839;28;20471;-85
2024/01/14 06:56:02;;;;;;;52.65;26.40;;;;;;;-0.06;100.00;101255.53;5041805;28;20123;-83
2024/01/14 06:58:28;;;;;;;58.03;28.95;;;;;;;0.03;100.00;101259.25;5067630;28;20040;-84
2024/01/14 07:00:54;;;;;;;50.65;26.63;;;;;;;-0.04;100.00;101255.59;5045365;28;20044;-83
2024/01/14 07:03:20;;;;;;;62.55;29.25;;;;;;;-0.03;100.00;101257.34;5084045;28;20052;-82
2024/01/14 07:05:45;;;;;;;51.78;25.88;;;;;;;-0.04;100.00;101261.66;5062198;28;20038;-82
2024/01/14 07:08:11;;;;;;;55.60;27.92;;;;;;;-0.02;100.00;101254.78;5055384;28;20040;-84
2024/01/14 07:10:36;;;;;;;52.78;23.58;;;;;;;-0.05;100.00;101246.00;5059116;28;20459;-84
2024/01/14 07:13:03;;;;;;;53.95;25.73;;;;;;;-0.05;100.00;101256.41;5061980;28;20016;-82
2024/01/14 07:15:28;;;;;;;60.47;27.77;;;;;;;-0.09;100.00;101239.84;5067540;28;20528;-83
2024/01/14 07:17:54;;;;;;;57.13;25.33;;;;;;;-0.06;100.00;101249.44;5049551;28;20127;-83
2024/01/14 07:20:21;;;;;;;47.13;24.23;;;;;;;-0.05;100.00;101239.09;5058009;28;20032;-84
2024/01/14 07:22:46;;;;;;;62.50;31.38;;;;;;;-0.08;100.00;101243.31;5053609;28;20036;-83
2024/01/14 07:25:12;;;;;;;58.30;26.30;;;;;;;-0.06;100.00;101254.66;5027301;28;20040;-83
2024/01/14 07:27:38;;;;;;;57.15;27.35;;;;;;;-0.04;100.00;101258.19;5065489;28;20054;-82
2024/01/14 07:30:05;;;;;;;56.15;27.13;;;;;;;-0.05;100.00;101251.19;5054191;28;20043;-83
2024/01/14 07:32:31;;;;;;;58.72;28.30;;;;;;;-0.09;100.00;101252.84;5041896;28;20032;-83
2024/01/14 07:34:57;;;;;;;64.43;28.33;;;;;;;-0.15;100.00;101237.03;5068412;28;20475;-83
2024/01/14 07:37:23;;;;;;;70.95;33.10;;;;;;;-0.10;100.00;101252.78;5064458;28;20054;-83
2024/01/14 07:39:48;;;;;;;65.78;29.85;;;;;;;-0.09;100.00;101254.59;5030757;28;20064;-82
2024/01/14 07:42:15;;;;;;;52.85;24.58;;;;;;;-0.07;100.00;101245.97;5079568;28;20032;-83
2024/01/14 07:44:41;;;;;;;57.88;29.25;;;;;;;-0.02;100.00;101249.59;5058788;28;20032;-86
2024/01/14 07:47:07;;;;;;;63.17;29.83;;;;;;;-0.04;100.00;101255.59;5087145;28;20796;-84
2024/01/14 07:49:33;;;;;;;57.33;28.35;;;;;;;-0.11;100.00;101246.72;5056922;28;20066;-83
2024/01/14 07:51:59;;;;;;;64.80;27.63;;;;;;;-0.09;100.00;101245.03;5052672;28;20039;-83
2024/01/14 07:54:25;;;;;;;69.65;32.65;;;;;;;-0.12;100.00;101244.09;5068618;28;20123;-84
2024/01/14 07:56:50;;;;;;;61.15;29.48;;;;;;;-0.09;100.00;101245.03;5086171;28;20437;-84
2024/01/14 07:59:20;;;;;;;40.15;19.42;;;;;;;-0.05;100.00;101253.81;5054073;28;20430;-84
2024/01/14 08:01:46;;;;;;;61.78;29.63;;;;;;;-0.07;100.00;101250.31;5085861;28;20089;-85
2024/01/14 08:04:12;;;;;;;54.08;25.50;;;;;;;-0.07;100.00;101239.91;5064635;28;20036;-84
2024/01/14 08:06:37;;;;;;;59.40;25.15;;;;;;;-0.04;100.00;101258.19;5044300;28;20056;-84
2024/01/14 08:09:03;;;;;;;44.40;21.83;;;;;;;-0.04;100.00;101259.06;5034113;28;20040;-84
2024/01/14 08:11:29;;;;;;;58.40;25.55;;;;;;;-0.04;100.00;101256.47;5063803;28;20060;-84
2024/01/14 08:13:54;;;;;;;61.47;28.50;;;;;;;-0.10;100.00;101250.19;5049701;28;20032;-85
2024/01/14 08:16:19;;;;;;;52.00;25.38;;;;;;;-0.05;100.00;101251.19;5054508;28;20047;-84
2024/01/14 08:18:45;;;;;;;48.55;23.25;;;;;;;-0.04;100.00;101246.06;5063737;28;20123;-84
2024/01/14 08:21:10;;;;;;;62.47;30.38;;;;;;;-0.05;100.00;101252.13;5070319;28;20040;-85
2024/01/14 08:23:36;;;;;;;55.30;23.55;;;;;;;-0.04;100.00;101253.88;5053963;28;20387;-85
2024/01/14 08:26:03;;;;;;;67.65;30.63;;;;;;;-0.01;100.00;101251.34;5052825;28;20032;-85
2024/01/14 08:28:31;;;;;;;61.70;29.30;;;;;;;-0.07;100.00;101251.19;5054132;28;20043;-84
2024/01/14 08:30:56;;;;;;;59.28;29.67;;;;;;;0.01;100.00;101248.78;5090352;28;20116;-83
2024/01/14 08:33:24;;;;;;;49.17;22.67;;;;;;;0.01;100.00;101248.78;5054703;28;20472;-84
2024/01/14 08:35:50;;;;;;;52.47;25.23;;;;;;;0.04;100.00;101238.44;5030556;28;20048;-84
2024/01/14 08:38:15;;;;;;;47.38;24.23;;;;;;;0.05;100.00;101237.63;5055642;28;20036;-85
2024/01/14 08:40:41;;;;;;;54.47;27.80;;;;;;;0.05;100.00;101239.31;5053711;28;20032;-86
2024/01/14 08:43:06;;;;;;;55.22;26.27;;;;;;;0.07;100.00;101225.50;5057069;28;20126;-84
2024/01/14 08:45:32;;;;;;;53.50;26.52;;;;;;;0.10;100.00;101232.50;5053877;28;20043;-84
2024/01/14 08:47:57;;;;;;;50.13;25.77;;;;;;;0.09;100.00;101222.94;5038730;28;20070;-85
2024/01/14 08:50:23;;;;;;;46.17;24.15;;;;;;;0.15;100.00;101217.94;5035677;28;20040;-84
2024/01/14 08:52:49;;;;;;;52.10;27.08;;;;;;;0.17;100.00;101224.03;5069697;28;20019;-84
2024/01/14 08:55:14;;;;;;;55.72;27.75;;;;;;;0.15;100.00;101212.72;5045422;28;20609;-84
2024/01/14 08:57:40;;;;;;;55.75;25.02;;;;;;;0.16;100.00;101223.16;5026351;28;20047;-85
2024/01/14 09:00:08;;;;;;;58.10;28.83;;;;;;;0.17;100.00;101224.03;5056143;28;20036;-85
2024/01/14 09:02:34;;;;;;;41.78;20.75;;;;;;;0.15;100.00;101221.41;5074765;28;20029;-86
2024/01/14 09:05:00;;;;;;;53.42;25.23;;;;;;;0.23;100.00;101220.72;5033050;28;20391;-85
2024/01/14 09:07:26;;;;;;;53.55;27.85;;;;;;;0.24;100.00;101222.47;5064019;28;20035;-84
2024/01/14 09:09:52;;;;;;;56.42;27.45;;;;;;;0.23;100.00;101224.22;5053296;28;20403;-84
2024/01/14 09:12:17;;;;;;;55.05;27.00;;;;;;;0.18;100.00;101211.06;5049556;28;20032;-85
2024/01/14 09:14:43;;;;;;;60.47;31.45;;;;;;;0.18;100.00;101211.06;5064042;28;20044;-86
2024/01/14 09:17:09;;;;;;;57.33;27.40;;;;;;;0.24;100.00;101219.88;5051953;28;20032;-85
2024/01/14 09:19:34;;;;;;;51.85;26.58;;;;;;;0.26;100.00;101213.00;5060132;28;20040;-84
2024/01/14 09:22:00;;;;;;;62.78;31.63;;;;;;;0.26;100.00;101213.00;5056650;28;20094;-86
2024/01/14 09:24:25;;;;;;;52.50;27.90;;;;;;;0.24;100.00;101212.94;5077762;28;20036;-85
2024/01/14 09:26:51;;;;;;;57.67;28.05;;;;;;;0.26;100.00;101206.06;5052697;28;20403;-85
2024/01/14 09:29:17;;;;;;;58.28;28.55;;;;;;;0.28;100.00;101206.97;5047041;28;20433;-83
2024/01/14 09:31:42;;;;;;;58.88;28.75;;;;;;;0.28;100.00;101206.09;5074201;28;20430;-84
2024/01/14 09:34:08;;;;;;;47.50;23.65;;;;;;;0.35;100.00;101205.41;5057504;28;20463;-84
2024/01/14 09:36:33;;;;;;;52.55;26.38;;;;;;;0.29;100.00;101202.63;5044398;28;20044;-85
2024/01/14 09:38:59;;;;;;;52.35;27.17;;;;;;;0.30;100.00;101200.09;5064090;28;20147;-84
2024/01/14 09:41:43;;;;;;;70.57;29.70;;;;;;;0.28;100.00;101209.59;5080696;28;20440;-83
2024/01/14 09:44:15;;;;;;;65.75;31.13;;;;;;;0.19;100.00;101184.16;5060146;28;20044;-84
2024/01/14 09:46:42;;;;;;;61.45;28.52;;;;;;;0.31;100.00;101203.56;5059538;28;20032;-83
2024/01/14 09:49:10;;;;;;;67.40;31.98;;;;;;;0.26;100.00;101192.16;5068057;28;20036;-84
2024/01/14 09:51:37;;;;;;;62.30;29.42;;;;;;;0.30;100.00;101187.06;5045181;28;20032;-83
2024/01/14 09:54:02;;;;;;;66.72;33.10;;;;;;;0.32;100.00;101194.91;5036425;28;20040;-83
2024/01/14 09:56:31;;;;;;;70.75;30.23;;;;;;;0.29;100.00;101179.19;5052214;28;20047;-84
2024/01/14 09:58:57;;;;;;;54.20;24.38;;;;;;;0.33;100.00;101176.72;5084716;28;20083;-82
2024/01/14 10:01:30;;;;;;;63.22;29.02;;;;;;;0.36;100.00;101184.59;5078277;28;20504;-83
2024/01/14 10:03:58;;;;;;;60.72;29.70;;;;;;;0.39;100.00;101184.66;5058467;28;20028;-83
2024/01/14 10:06:24;;;;;;;79.03;31.17;;;;;;;0.41;100.00;101182.09;5065564;28;20028;-83
2024/01/14 10:08:50;;;;;;;62.45;27.92;;;;;;;0.43;100.00;101168.28;5053833;28;20380;-83
2024/01/14 10:11:15;;;;;;;59.10;26.33;;;;;;;0.36;100.00;101157.66;5053777;28;20455;-82
2024/01/14 10:13:41;;;;;;;53.00;27.80;;;;;;;0.48;100.00;101171.00;5063315;28;20032;-84
2024/01/14 10:16:07;;;;;;;46.17;23.05;;;;;;;0.56;100.00;101163.38;5067744;28;20127;-83
2024/01/14 10:18:36;;;;;;;56.28;26.98;;;;;;;0.50;100.00;101160.63;5041651;28;20056;-84
2024/01/14 10:21:01;;;;;;;52.67;26.02;;;;;;;0.50;100.00;101156.28;5067513;28;20367;-83
2024/01/14 10:23:27;;;;;;;58.35;28.52;;;;;;;0.51;100.00;101155.44;5035898;28;20037;-84
2024/01/14 10:25:54;;;;;;;51.58;26.70;;;;;;;0.52;100.00;101149.41;5074926;28;20033;-83
2024/01/14 10:28:19;;;;;;;45.75;21.92;;;;;;;0.60;100.00;101140.03;5066815;28;20131;-78
2024/01/14 10:30:45;;;;;;;53.95;25.88;;;;;;;0.54;100.00;101142.47;5060095;28;20169;-82
2024/01/14 10:33:11;;;;;;;50.13;26.85;;;;;;;0.50;100.00;101132.84;5035919;28;20033;-83
2024/01/14 10:35:38;;;;;;;51.50;28.33;;;;;;;0.55;100.00;101135.56;5049976;28;20382;-84
2024/01/14 10:38:04;;;;;;;48.58;23.77;;;;;;;0.55;100.00;101149.47;5054528;28;20398;-80
2024/01/14 10:40:30;;;;;;;50.00;25.45;;;;;;;0.54;100.00;101131.16;5061486;28;20551;-84
2024/01/14 10:42:56;;;;;;;55.40;28.58;;;;;;;0.53;100.00;101135.50;5059433;28;20124;-83
2024/01/14 10:45:22;;;;;;;49.92;24.98;;;;;;;0.50;100.00;101134.56;5055920;28;20044;-83
2024/01/14 10:47:53;;;;;;;43.75;22.08;;;;;;;0.57;100.00;101123.41;5078509;28;20047;-80
2024/01/14 10:50:20;;;;;;;;;;;;;;;0.60;100.00;101131.31;5046583;28;20073;-83
2024/01/14 10:52:52;;;;;;;45.00;22.40;;;;;;;0.46;100.00;101119.69;5057175;28;19992;-84
2024/01/14 10:55:46;;;;;;;46.67;23.92;;;;;;;0.46;100.00;101111.88;5048847;28;20071;-83
2024/01/14 10:58:29;;;;;;;45.25;22.88;;;;;;;0.50;100.00;101101.56;5045491;28;20355;-83
2024/01/14 11:01:04;;;;;;;47.70;24.33;;;;;;;0.39;100.00;101109.09;5061347;28;20028;-84